Time;durP1;ratioP1;P1;durP2;ratioP2;P2;SDS_P1;SDS_P2;PMS_P1;PMS_P2;Temp;Humidity;BMP_temperature;BMP_pressure;BME280_temperature;BME280_humidity;BME280_pressure;Samples;Min_cycle;Max_cycle;Signal;HPM_P1;HPM_P2
2023/08/05 00:01:48;;;;;;;3.83;2.30;;;17.50;99.90;;;;;;4975839;28;20263;-69
2023/08/05 00:04:16;;;;;;;3.35;2.53;;;17.40;99.90;;;;;;4993030;28;20491;-70
2023/08/05 00:06:41;;;;;;;4.18;2.70;;;17.40;99.90;;;;;;4990780;28;20215;-69
2023/08/05 00:09:07;;;;;;;3.22;2.70;;;17.40;99.90;;;;;;4994364;28;20179;-67
2023/08/05 00:11:33;;;;;;;5.50;2.55;;;17.40;99.90;;;;;;4994342;28;20215;-69
2023/08/05 00:13:58;;;;;;;4.03;2.50;;;17.30;99.90;;;;;;4991293;28;20238;-68
2023/08/05 00:16:26;;;;;;;3.67;2.53;;;17.30;99.90;;;;;;4981401;28;20172;-70
2023/08/05 00:18:54;;;;;;;5.38;2.60;;;17.20;99.90;;;;;;4994540;28;20217;-70
2023/08/05 00:21:20;;;;;;;2.88;2.58;;;17.20;99.90;;;;;;4994529;28;20198;-69
2023/08/05 00:23:46;;;;;;;3.10;2.50;;;17.20;99.90;;;;;;4993893;28;20183;-69
2023/08/05 00:26:12;;;;;;;3.08;2.72;;;17.10;99.90;;;;;;4994303;28;20433;-69
2023/08/05 00:28:37;;;;;;;4.35;2.63;;;17.10;99.90;;;;;;4987687;28;20186;-69
2023/08/05 00:31:09;;;;;;;3.50;2.30;;;17.10;99.90;;;;;;4992816;28;20370;-69
2023/08/05 00:33:37;;;;;;;3.88;2.53;;;17.00;99.90;;;;;;4983848;28;20211;-69
2023/08/05 00:36:05;;;;;;;3.25;2.50;;;17.10;99.90;;;;;;4993814;28;20227;-69
2023/08/05 00:38:31;;;;;;;4.00;2.90;;;17.00;99.90;;;;;;4991153;28;20352;-70
2023/08/05 00:40:58;;;;;;;3.47;2.92;;;17.00;99.90;;;;;;4989971;28;20179;-69
2023/08/05 00:43:24;;;;;;;5.03;2.70;;;16.90;99.90;;;;;;4994018;28;20266;-69
2023/08/05 00:45:54;;;;;;;4.70;3.30;;;17.00;99.90;;;;;;4994105;28;20270;-70
2023/08/05 00:48:20;;;;;;;4.53;2.95;;;17.00;99.90;;;;;;5014869;28;20241;-70
2023/08/05 00:50:51;;;;;;;3.42;2.85;;;17.00;99.90;;;;;;4979181;28;20197;-70
2023/08/05 00:53:16;;;;;;;4.75;3.45;;;17.00;99.90;;;;;;4993864;28;20246;-69
2023/08/05 00:55:47;;;;;;;4.28;3.47;;;16.90;99.90;;;;;;4995510;28;20472;-69
2023/08/05 00:58:15;;;;;;;5.68;4.05;;;16.90;99.90;;;;;;4994099;28;20175;-70
2023/08/05 01:00:41;;;;;;;6.60;4.18;;;16.90;99.90;;;;;;4993336;28;20237;-70
2023/08/05 01:03:07;;;;;;;4.97;3.72;;;16.90;99.90;;;;;;4993247;28;20203;-70
2023/08/05 01:05:33;;;;;;;4.00;3.53;;;16.90;99.90;;;;;;4987439;28;20188;-70
2023/08/05 01:08:04;;;;;;;6.07;3.92;;;16.90;99.90;;;;;;4991800;28;20191;-70
2023/08/05 01:10:30;;;;;;;5.00;4.28;;;16.90;99.90;;;;;;4993307;28;20203;-70
2023/08/05 01:12:55;;;;;;;5.00;3.63;;;16.90;99.90;;;;;;4986820;28;20279;-70
2023/08/05 01:15:21;;;;;;;5.25;4.07;;;16.90;99.90;;;;;;4991569;28;20184;-69
2023/08/05 01:17:52;;;;;;;6.10;4.55;;;16.90;99.90;;;;;;4986658;28;20185;-70
2023/08/05 01:20:21;;;;;;;4.53;3.70;;;16.90;99.90;;;;;;4992044;28;20190;-71
2023/08/05 01:22:53;;;;;;;5.07;3.95;;;16.80;99.90;;;;;;4994108;28;20214;-69
2023/08/05 01:25:31;;;;;;;6.45;3.75;;;16.80;99.90;;;;;;4993170;28;20203;-70
2023/08/05 01:27:59;;;;;;;5.15;3.75;;;16.80;99.90;;;;;;4993008;28;20292;-71
2023/08/05 01:30:25;;;;;;;4.57;3.95;;;16.80;99.90;;;;;;4982143;28;20264;-71
2023/08/05 01:32:55;;;;;;;4.65;3.70;;;16.80;99.90;;;;;;4993724;28;20278;-71
2023/08/05 01:35:24;;;;;;;6.82;3.90;;;16.80;99.90;;;;;;4990797;28;20240;-71
2023/08/05 01:37:52;;;;;;;5.50;3.97;;;16.70;99.90;;;;;;4986836;28;20211;-70
2023/08/05 01:40:18;;;;;;;5.38;3.90;;;16.70;99.90;;;;;;4992240;28;20191;-71
2023/08/05 01:42:44;;;;;;;4.90;3.70;;;16.70;99.90;;;;;;4992792;28;20184;-69
2023/08/05 01:45:11;;;;;;;5.25;4.40;;;16.60;99.90;;;;;;4990557;28;20211;-70
2023/08/05 01:47:39;;;;;;;4.93;4.00;;;16.60;99.90;;;;;;4995791;28;20290;-71
2023/08/05 01:50:05;;;;;;;5.63;3.95;;;16.60;99.90;;;;;;4983750;28;20262;-70
2023/08/05 01:52:31;;;;;;;5.15;3.90;;;16.60;99.90;;;;;;4997210;28;20193;-70
2023/08/05 01:54:57;;;;;;;4.95;3.95;;;16.60;99.90;;;;;;4995795;28;20175;-71
2023/08/05 01:57:24;;;;;;;5.53;3.83;;;16.50;99.90;;;;;;4996797;28;20195;-69
2023/08/05 01:59:50;;;;;;;4.68;3.63;;;16.50;99.90;;;;;;4997441;28;20214;-70
2023/08/05 02:02:18;;;;;;;4.30;3.47;;;16.50;99.90;;;;;;4990617;28;20195;-70
2023/08/05 02:04:46;;;;;;;4.35;3.78;;;16.50;99.90;;;;;;4993367;28;20243;-71
2023/08/05 02:07:12;;;;;;;4.32;3.15;;;16.50;99.90;;;;;;4980215;28;20180;-71
2023/08/05 02:09:37;;;;;;;3.75;3.38;;;16.50;99.90;;;;;;5000494;28;20190;-70
2023/08/05 02:12:03;;;;;;;4.00;3.60;;;16.50;99.90;;;;;;4996155;28;20184;-71
2023/08/05 02:14:31;;;;;;;4.45;3.25;;;16.50;99.90;;;;;;4996576;28;20199;-70
2023/08/05 02:16:59;;;;;;;5.03;3.20;;;16.40;99.90;;;;;;4999143;28;20422;-71
2023/08/05 02:19:27;;;;;;;6.45;3.15;;;16.40;99.90;;;;;;4997203;28;20231;-70
2023/08/05 02:21:52;;;;;;;5.88;3.25;;;16.40;99.90;;;;;;4996823;28;20172;-71
2023/08/05 02:24:20;;;;;;;4.13;3.10;;;16.40;99.90;;;;;;4993785;28;20186;-70
2023/08/05 02:26:46;;;;;;;3.85;3.17;;;16.30;99.90;;;;;;4996843;28;20180;-71
2023/08/05 02:29:14;;;;;;;4.00;3.40;;;16.30;99.90;;;;;;4996263;28;20183;-70
2023/08/05 02:31:41;;;;;;;3.53;2.92;;;16.30;99.90;;;;;;4982959;28;20192;-68
2023/08/05 02:34:07;;;;;;;4.55;3.20;;;16.30;99.90;;;;;;4986660;28;20290;-71
2023/08/05 02:36:35;;;;;;;3.40;2.95;;;16.20;99.90;;;;;;4996034;28;20267;-70
2023/08/05 02:39:01;;;;;;;4.13;2.97;;;16.20;99.90;;;;;;4992216;28;20192;-70
2023/08/05 02:41:26;;;;;;;3.20;2.83;;;16.20;99.90;;;;;;4993652;28;20179;-70
2023/08/05 02:43:52;;;;;;;3.45;3.10;;;16.20;99.90;;;;;;4996307;28;20266;-70
2023/08/05 02:46:17;;;;;;;3.25;2.95;;;16.10;99.90;;;;;;4995557;28;20253;-70
2023/08/05 02:48:43;;;;;;;3.10;2.80;;;16.10;99.90;;;;;;4992835;28;20204;-69
2023/08/05 02:51:11;;;;;;;3.58;3.13;;;16.00;99.90;;;;;;4991857;28;20184;-70
2023/08/05 02:53:41;;;;;;;3.10;2.72;;;16.00;99.90;;;;;;4982580;28;20250;-71
2023/08/05 02:56:07;;;;;;;3.80;3.38;;;16.00;99.90;;;;;;4996133;28;20203;-71
2023/08/05 02:58:32;;;;;;;3.22;2.92;;;16.00;99.90;;;;;;4996179;28;20207;-71
2023/08/05 03:01:08;;;;;;;3.72;3.13;;;15.90;99.90;;;;;;4992707;28;20220;-71
2023/08/05 03:03:38;;;;;;;3.63;3.05;;;15.90;99.90;;;;;;4991408;28;20198;-71
2023/08/05 03:06:04;;;;;;;3.40;3.10;;;15.90;99.90;;;;;;4992824;28;20216;-71
2023/08/05 03:08:30;;;;;;;3.28;2.90;;;15.90;99.90;;;;;;4984658;28;20227;-70
2023/08/05 03:11:02;;;;;;;4.25;3.60;;;15.90;99.90;;;;;;4990335;28;20183;-68
2023/08/05 03:13:30;;;;;;;3.83;3.22;;;15.80;99.90;;;;;;4993860;28;20219;-71
2023/08/05 03:16:08;;;;;;;3.72;3.30;;;15.80;99.90;;;;;;4994377;28;20187;-71
2023/08/05 03:18:33;;;;;;;3.40;3.00;;;15.80;99.90;;;;;;4996091;28;20202;-71
2023/08/05 03:20:59;;;;;;;3.25;2.95;;;15.80;99.90;;;;;;4994688;28;20375;-71
2023/08/05 03:23:24;;;;;;;4.07;3.50;;;15.80;99.90;;;;;;4976578;28;20184;-71
2023/08/05 03:25:53;;;;;;;3.67;3.10;;;15.80;99.90;;;;;;4992416;28;20187;-69
2023/08/05 03:28:21;;;;;;;3.50;2.95;;;15.80;99.90;;;;;;5011879;28;20225;-71
2023/08/05 03:30:47;;;;;;;3.58;3.03;;;15.70;99.90;;;;;;4984918;28;20180;-72
2023/08/05 03:33:14;;;;;;;4.28;3.15;;;15.70;99.90;;;;;;4994669;28;20226;-71
2023/08/05 03:35:46;;;;;;;5.00;3.00;;;15.70;99.90;;;;;;4993140;28;20282;-71
2023/08/05 03:38:11;;;;;;;3.47;3.17;;;15.70;99.90;;;;;;4989465;28;20188;-69
2023/08/05 03:40:37;;;;;;;3.75;3.45;;;15.70;99.90;;;;;;4995248;28;20202;-70
2023/08/05 03:43:03;;;;;;;4.63;2.85;;;15.70;99.90;;;;;;4995447;28;20724;-72
2023/08/05 03:45:31;;;;;;;5.20;3.50;;;15.70;99.90;;;;;;4993346;28;20179;-70
2023/08/05 03:47:56;;;;;;;3.53;3.10;;;15.60;99.90;;;;;;4999020;28;20332;-72
2023/08/05 03:50:22;;;;;;;3.20;2.90;;;15.60;99.90;;;;;;4995522;28;20195;-71
2023/08/05 03:52:50;;;;;;;3.22;2.90;;;15.60;99.90;;;;;;4994897;28;20267;-71
2023/08/05 03:55:16;;;;;;;3.33;3.03;;;15.60;99.90;;;;;;5018180;28;20191;-71
2023/08/05 03:57:42;;;;;;;3.55;3.08;;;15.60;99.90;;;;;;4991424;28;20175;-72
2023/08/05 04:00:12;;;;;;;5.13;2.75;;;15.60;99.90;;;;;;4989756;28;20226;-71
2023/08/05 04:02:44;;;;;;;4.22;3.40;;;15.50;99.90;;;;;;4990789;28;20234;-70
2023/08/05 04:05:12;;;;;;;3.50;2.97;;;15.50;99.90;;;;;;4998391;28;20203;-65
2023/08/05 04:07:40;;;;;;;3.67;2.90;;;15.50;99.90;;;;;;4991907;28;20207;-66
2023/08/05 04:10:08;;;;;;;3.65;2.92;;;15.50;99.90;;;;;;4987280;28;20214;-66
2023/08/05 04:12:35;;;;;;;3.25;2.95;;;15.40;99.90;;;;;;4982359;28;20182;-65
2023/08/05 04:15:02;;;;;;;4.15;3.50;;;15.40;99.90;;;;;;4986424;28;20183;-67
2023/08/05 04:17:30;;;;;;;3.67;3.22;;;15.40;99.90;;;;;;4987045;28;20339;-66
2023/08/05 04:19:56;;;;;;;4.07;3.45;;;15.40;99.90;;;;;;4993124;28;20179;-66
2023/08/05 04:22:24;;;;;;;3.35;2.95;;;15.40;99.90;;;;;;4994469;28;20190;-67
2023/08/05 04:24:50;;;;;;;3.50;3.20;;;15.40;99.90;;;;;;4990892;28;20215;-67
2023/08/05 04:27:18;;;;;;;3.47;2.78;;;15.50;99.90;;;;;;4984882;28;20175;-67
2023/08/05 04:29:44;;;;;;;3.65;3.35;;;15.50;99.90;;;;;;4998802;28;20261;-67
2023/08/05 04:32:09;;;;;;;3.45;3.15;;;15.50;99.90;;;;;;4993829;28;20358;-66
2023/08/05 04:34:37;;;;;;;6.90;3.20;;;15.60;99.90;;;;;;4993879;28;20203;-67
2023/08/05 04:37:24;;;;;;;3.70;3.33;;;15.60;99.90;;;;;;4994450;28;20167;-67
2023/08/05 04:39:54;;;;;;;3.50;3.15;;;15.70;99.90;;;;;;4992623;28;20183;-67
2023/08/05 04:42:22;;;;;;;4.30;3.05;;;15.70;99.90;;;;;;4985769;28;20238;-67
2023/08/05 04:44:48;;;;;;;3.72;3.28;;;15.70;99.90;;;;;;4993884;28;20281;-67
2023/08/05 04:47:16;;;;;;;3.80;3.20;;;15.80;99.90;;;;;;5008537;28;20227;-67
2023/08/05 04:49:45;;;;;;;3.85;3.05;;;15.80;99.90;;;;;;4991996;28;20423;-67
2023/08/05 04:52:13;;;;;;;3.83;3.30;;;15.90;99.90;;;;;;4991198;28;20191;-66
2023/08/05 04:54:45;;;;;;;4.50;3.35;;;15.90;99.90;;;;;;4992800;28;20199;-66
2023/08/05 04:57:12;;;;;;;3.60;3.10;;;15.90;99.90;;;;;;4980186;28;20200;-66
2023/08/05 04:59:38;;;;;;;4.55;3.55;;;16.00;99.90;;;;;;4988245;28;20171;-66
2023/08/05 05:02:04;;;;;;;4.63;3.60;;;16.00;99.90;;;;;;4990571;28;20179;-66
2023/08/05 05:04:34;;;;;;;4.15;3.25;;;16.10;99.90;;;;;;4979000;28;20204;-66
2023/08/05 05:07:00;;;;;;;3.30;3.00;;;16.10;99.90;;;;;;4986988;28;20187;-67
2023/08/05 05:09:26;;;;;;;3.65;3.30;;;16.20;99.90;;;;;;4994044;28;20190;-67
2023/08/05 05:11:53;;;;;;;4.25;3.33;;;16.20;99.90;;;;;;4989895;28;20199;-66
2023/08/05 05:14:20;;;;;;;3.80;3.25;;;16.30;99.90;;;;;;4992332;28;20199;-66
2023/08/05 05:16:45;;;;;;;5.43;3.63;;;16.30;99.90;;;;;;4994946;28;20179;-66
2023/08/05 05:19:11;;;;;;;3.83;3.45;;;16.40;99.90;;;;;;5006685;28;20225;-66
2023/08/05 05:21:37;;;;;;;3.50;2.92;;;16.40;99.90;;;;;;5002887;28;20171;-67
2023/08/05 05:24:04;;;;;;;3.97;3.35;;;16.50;99.90;;;;;;4997410;28;20176;-66
2023/08/05 05:26:29;;;;;;;3.15;2.85;;;16.50;99.90;;;;;;5004354;28;20273;-67
2023/08/05 05:29:00;;;;;;;4.40;3.42;;;16.60;99.90;;;;;;5000562;28;20213;-67
2023/08/05 05:31:25;;;;;;;3.63;3.10;;;16.70;99.90;;;;;;4998767;28;20179;-66
2023/08/05 05:33:53;;;;;;;4.20;2.92;;;16.70;99.90;;;;;;4998448;28;20210;-66
2023/08/05 05:36:19;;;;;;;3.40;3.10;;;16.80;99.90;;;;;;4994118;28;20219;-67
2023/08/05 05:38:49;;;;;;;5.00;2.90;;;16.80;99.90;;;;;;5000477;28;20266;-66
2023/08/05 05:41:16;;;;;;;3.67;3.20;;;16.80;99.90;;;;;;4999672;28;20237;-67
2023/08/05 05:43:42;;;;;;;5.20;2.83;;;16.80;99.90;;;;;;4997445;28;20180;-66
2023/08/05 05:46:10;;;;;;;3.55;2.58;;;16.80;99.90;;;;;;4998108;28;20296;-66
2023/08/05 05:48:36;;;;;;;4.15;3.15;;;16.70;99.90;;;;;;5000226;28;20209;-67
2023/08/05 05:51:02;;;;;;;4.07;2.85;;;16.70;99.90;;;;;;5000209;28;20187;-67
2023/08/05 05:53:30;;;;;;;5.55;3.35;;;16.80;99.90;;;;;;4998783;28;20231;-67
2023/08/05 05:55:58;;;;;;;4.85;3.20;;;16.80;99.90;;;;;;5000319;28;20191;-67
2023/08/05 05:58:23;;;;;;;6.10;3.58;;;16.80;99.90;;;;;;5000721;28;20198;-67
2023/08/05 06:00:56;;;;;;;4.28;3.15;;;16.80;99.90;;;;;;4999821;28;20183;-67
2023/08/05 06:03:27;;;;;;;3.70;3.30;;;16.90;99.90;;;;;;5000300;28;20179;-67
2023/08/05 06:05:58;;;;;;;44.60;34.60;;;17.00;99.90;;;;;;4997104;28;20189;-66
2023/08/05 06:08:27;;;;;;;14.10;11.27;;;17.10;99.90;;;;;;4996383;28;20218;-66
2023/08/05 06:10:52;;;;;;;9.27;7.68;;;17.10;99.90;;;;;;4994364;28;20180;-67
2023/08/05 06:13:21;;;;;;;8.18;5.90;;;17.20;99.90;;;;;;4996930;28;20270;-66
2023/08/05 06:15:47;;;;;;;7.47;5.13;;;17.20;99.90;;;;;;4997183;28;20179;-67
2023/08/05 06:18:15;;;;;;;5.35;4.20;;;17.30;99.90;;;;;;4998746;28;20171;-66
2023/08/05 06:20:40;;;;;;;4.25;3.70;;;17.30;99.90;;;;;;4998240;28;20191;-66
2023/08/05 06:23:06;;;;;;;3.72;3.17;;;17.30;99.90;;;;;;4994289;28;20186;-66
2023/08/05 06:25:33;;;;;;;5.47;4.03;;;17.30;99.90;;;;;;4999430;28;20175;-66
2023/08/05 06:28:01;;;;;;;4.05;3.58;;;17.40;99.90;;;;;;5010177;28;20278;-67
2023/08/05 06:30:26;;;;;;;3.55;2.92;;;17.40;99.90;;;;;;4983224;28;20172;-66
2023/08/05 06:32:52;;;;;;;6.93;3.00;;;17.40;99.90;;;;;;4997629;28;20180;-66
2023/08/05 06:35:17;;;;;;;5.35;3.17;;;17.40;99.90;;;;;;4979183;28;20184;-65
2023/08/05 06:37:43;;;;;;;4.32;3.20;;;17.50;99.90;;;;;;4986945;28;20172;-66
2023/08/05 06:40:09;;;;;;;3.13;2.83;;;17.50;99.90;;;;;;4995999;28;20244;-66
2023/08/05 06:42:35;;;;;;;4.50;3.38;;;17.50;99.90;;;;;;5014376;28;20243;-65
2023/08/05 06:45:00;;;;;;;3.22;2.80;;;17.50;99.90;;;;;;5005762;28;20263;-66
2023/08/05 06:47:30;;;;;;;3.60;2.92;;;17.50;99.90;;;;;;5112333;23;20788;-66
2023/08/05 06:49:57;;;;;;;3.15;2.85;;;17.50;99.90;;;;;;5006320;28;20233;-66
2023/08/05 06:52:25;;;;;;;4.75;3.45;;;17.50;99.90;;;;;;4993687;28;20179;-67
2023/08/05 06:54:53;;;;;;;4.15;3.17;;;17.60;99.90;;;;;;5001035;28;20196;-67
2023/08/05 06:57:18;;;;;;;4.43;3.60;;;17.60;99.90;;;;;;4995471;28;20204;-66
2023/08/05 06:59:44;;;;;;;3.85;3.20;;;17.60;99.90;;;;;;4996238;28;20206;-66
2023/08/05 07:02:11;;;;;;;3.08;2.78;;;17.60;99.90;;;;;;4998444;28;20175;-67
2023/08/05 07:04:39;;;;;;;3.67;3.17;;;17.60;99.90;;;;;;4999577;28;20214;-67
2023/08/05 07:07:10;;;;;;;3.53;3.22;;;17.70;99.90;;;;;;4997344;28;20194;-66
2023/08/05 07:09:38;;;;;;;2.80;2.60;;;17.70;99.90;;;;;;5005370;28;20190;-68
2023/08/05 07:12:04;;;;;;;4.40;2.70;;;17.70;99.90;;;;;;4996290;28;20207;-68
2023/08/05 07:14:31;;;;;;;3.78;3.17;;;17.80;99.90;;;;;;4995539;28;20205;-68
2023/08/05 07:16:57;;;;;;;3.95;3.30;;;17.90;99.90;;;;;;4991116;28;20327;-67
2023/08/05 07:19:22;;;;;;;3.97;3.40;;;17.90;99.90;;;;;;4983558;28;20238;-69
2023/08/05 07:21:50;;;;;;;5.00;3.67;;;17.90;99.90;;;;;;4995841;28;20183;-68
2023/08/05 07:24:20;;;;;;;3.75;3.17;;;18.00;99.90;;;;;;4978490;28;20184;-66
2023/08/05 07:26:45;;;;;;;5.53;3.33;;;18.00;99.90;;;;;;4995639;28;20207;-66
2023/08/05 07:29:16;;;;;;;3.20;2.90;;;18.10;99.90;;;;;;4995566;28;20266;-68
2023/08/05 07:31:42;;;;;;;3.90;3.20;;;18.10;99.90;;;;;;4994379;28;20196;-68
2023/08/05 07:34:09;;;;;;;4.32;3.42;;;18.20;99.90;;;;;;4998388;28;20226;-67
2023/08/05 07:36:36;;;;;;;3.22;2.92;;;18.20;99.90;;;;;;4995742;28;20194;-66
2023/08/05 07:39:06;;;;;;;4.00;3.17;;;18.30;99.90;;;;;;4986349;28;20164;-67
2023/08/05 07:41:32;;;;;;;4.32;3.10;;;18.40;99.90;;;;;;4993319;28;20198;-67
2023/08/05 07:44:01;;;;;;;3.53;3.20;;;18.50;99.90;;;;;;4995415;28;20183;-66
2023/08/05 07:46:30;;;;;;;4.82;3.40;;;18.60;99.90;;;;;;4993133;28;20195;-65
2023/08/05 07:48:57;;;;;;;3.67;3.05;;;18.70;99.90;;;;;;4992018;28;20203;-66
2023/08/05 07:51:25;;;;;;;4.47;3.08;;;18.90;99.90;;;;;;4990592;28;20179;-66
2023/08/05 07:53:55;;;;;;;3.83;3.10;;;19.00;99.90;;;;;;4997553;28;20210;-64
2023/08/05 07:56:22;;;;;;;3.45;3.10;;;19.10;99.90;;;;;;4992530;28;20184;-66
2023/08/05 07:58:48;;;;;;;3.17;2.88;;;19.20;99.90;;;;;;4992451;28;20167;-66
2023/08/05 08:01:21;;;;;;;3.55;2.95;;;19.30;99.90;;;;;;4997041;28;20203;-66
2023/08/05 08:04:01;;;;;;;3.33;3.03;;;19.40;99.90;;;;;;4993932;28;20226;-67
2023/08/05 08:06:27;;;;;;;4.10;3.00;;;19.60;99.90;;;;;;4985351;28;20199;-67
2023/08/05 08:08:55;;;;;;;3.42;3.00;;;19.70;99.90;;;;;;4993855;28;20179;-66
2023/08/05 08:11:20;;;;;;;5.55;3.25;;;19.80;99.90;;;;;;4994505;28;20237;-67
2023/08/05 08:13:46;;;;;;;3.58;3.17;;;19.90;99.90;;;;;;4994823;28;20270;-67
2023/08/05 08:16:15;;;;;;;4.03;2.95;;;20.00;99.90;;;;;;4993832;28;20269;-65
2023/08/05 08:18:46;;;;;;;3.13;2.75;;;20.00;99.90;;;;;;4999630;28;20182;-66
2023/08/05 08:21:11;;;;;;;3.00;2.47;;;20.10;99.90;;;;;;4994528;28;20199;-67
2023/08/05 08:23:37;;;;;;;3.40;2.85;;;20.20;99.90;;;;;;5000107;28;20189;-67
2023/08/05 08:26:05;;;;;;;4.53;2.60;;;20.30;99.90;;;;;;4987463;28;20190;-66
2023/08/05 08:28:30;;;;;;;3.45;2.58;;;20.40;99.90;;;;;;4991905;28;20184;-66
2023/08/05 08:30:58;;;;;;;4.18;2.88;;;20.40;99.90;;;;;;4989887;28;20233;-67
2023/08/05 08:33:25;;;;;;;2.70;2.50;;;20.50;99.90;;;;;;4997630;28;20203;-67
2023/08/05 08:35:51;;;;;;;2.75;2.47;;;20.60;99.90;;;;;;4993711;28;20163;-67
2023/08/05 08:38:18;;;;;;;3.20;2.42;;;20.70;99.90;;;;;;4994243;28;20287;-67
2023/08/05 08:40:47;;;;;;;3.97;2.50;;;20.80;99.90;;;;;;4988428;28;20234;-66
2023/08/05 08:43:18;;;;;;;2.97;2.53;;;20.90;99.90;;;;;;4988080;28;20218;-66
2023/08/05 08:45:47;;;;;;;3.38;2.42;;;21.00;99.90;;;;;;4982299;28;20175;-66
2023/08/05 08:48:14;;;;;;;2.83;2.63;;;21.10;99.90;;;;;;4989051;28;20250;-65
2023/08/05 08:50:40;;;;;;;3.03;2.50;;;21.10;99.90;;;;;;4988546;28;20188;-66
2023/08/05 08:53:10;;;;;;;2.78;2.30;;;21.10;99.90;;;;;;4983318;28;20206;-66
2023/08/05 08:55:36;;;;;;;3.60;2.70;;;21.10;99.90;;;;;;4994012;28;20262;-66
2023/08/05 08:58:08;;;;;;;2.50;2.30;;;21.10;99.90;;;;;;4999167;28;20178;-66
2023/08/05 09:00:37;;;;;;;2.92;2.33;;;21.10;99.90;;;;;;4995422;28;20286;-66
2023/08/05 09:03:04;;;;;;;2.60;2.40;;;21.10;99.90;;;;;;4982434;28;20176;-65
2023/08/05 09:05:44;;;;;;;3.03;2.58;;;21.20;99.90;;;;;;4995958;28;20179;-65
2023/08/05 09:08:09;;;;;;;2.42;2.22;;;21.20;99.90;;;;;;4997641;28;20213;-65
2023/08/05 09:10:37;;;;;;;3.33;2.47;;;21.20;99.90;;;;;;4992040;28;20187;-66
2023/08/05 09:13:06;;;;;;;8.20;2.22;;;21.40;99.90;;;;;;4991544;28;20191;-65
2023/08/05 09:15:39;;;;;;;2.40;2.20;;;21.40;99.90;;;;;;4992496;28;20195;-66
2023/08/05 09:18:07;;;;;;;2.55;2.35;;;21.50;99.90;;;;;;4989151;28;20176;-66
2023/08/05 09:20:34;;;;;;;2.78;2.42;;;21.60;99.90;;;;;;4994088;28;20171;-66
2023/08/05 09:23:07;;;;;;;2.47;1.92;;;21.70;99.90;;;;;;4994714;28;20178;-64
2023/08/05 09:25:41;;;;;;;2.38;2.13;;;21.80;99.90;;;;;;4999690;28;20171;-65
2023/08/05 09:28:07;;;;;;;3.85;2.22;;;21.90;99.90;;;;;;4982602;28;20211;-64
2023/08/05 09:30:35;;;;;;;2.40;2.20;;;22.00;99.90;;;;;;4990533;28;20251;-65
2023/08/05 09:33:04;;;;;;;2.00;1.90;;;22.00;99.90;;;;;;5002768;28;20183;-65
2023/08/05 09:35:29;;;;;;;2.30;2.10;;;22.10;99.90;;;;;;4993587;28;20203;-65
2023/08/05 09:38:01;;;;;;;2.83;2.10;;;22.20;99.90;;;;;;4992472;28;20295;-66
2023/08/05 09:40:28;;;;;;;2.88;2.45;;;22.20;99.90;;;;;;5006405;28;20225;-67
2023/08/05 09:42:59;;;;;;;3.38;2.40;;;22.30;99.90;;;;;;4998516;28;20196;-64
2023/08/05 09:45:30;;;;;;;2.30;2.10;;;22.30;99.90;;;;;;4993587;28;20207;-65
2023/08/05 09:48:04;;;;;;;2.95;2.40;;;22.30;99.90;;;;;;4992196;28;20187;-65
2023/08/05 09:50:31;;;;;;;3.17;2.83;;;22.30;99.90;;;;;;4991099;28;20195;-66
2023/08/05 09:53:00;;;;;;;5.40;2.67;;;22.30;99.90;;;;;;4993477;28;20259;-65
2023/08/05 09:55:28;;;;;;;2.40;2.20;;;22.30;99.90;;;;;;4990137;28;20392;-66
2023/08/05 09:57:55;;;;;;;2.88;2.58;;;22.30;99.90;;;;;;4993925;28;20200;-66
2023/08/05 10:00:21;;;;;;;3.10;2.40;;;22.20;99.90;;;;;;4990690;28;20211;-66
2023/08/05 10:02:54;;;;;;;2.33;2.10;;;22.20;99.90;;;;;;4996277;28;20206;-67
2023/08/05 10:05:24;;;;;;;2.90;2.50;;;22.10;99.90;;;;;;4978855;28;20183;-66
2023/08/05 10:07:53;;;;;;;3.00;2.40;;;22.10;99.90;;;;;;4996901;28;20187;-65
2023/08/05 10:10:24;;;;;;;3.65;2.38;;;22.10;99.90;;;;;;4997530;28;20179;-66
2023/08/05 10:13:20;;;;;;;3.10;2.60;;;22.20;99.90;;;;;;5004143;28;20183;-65
2023/08/05 10:15:51;;;;;;;3.17;2.80;;;22.30;99.90;;;;;;4996296;28;20227;-66
2023/08/05 10:18:18;;;;;;;4.70;2.90;;;22.30;99.90;;;;;;5006531;28;20186;-66
2023/08/05 10:20:50;;;;;;;3.03;2.72;;;22.30;99.90;;;;;;4994732;28;20198;-66
2023/08/05 10:23:16;;;;;;;3.05;2.65;;;22.30;99.90;;;;;;4994863;28;20266;-64
2023/08/05 10:25:49;;;;;;;3.97;2.80;;;22.30;99.90;;;;;;4996843;28;20278;-65
2023/08/05 10:28:26;;;;;;;3.47;3.15;;;22.30;99.90;;;;;;4995524;28;20183;-65
2023/08/05 10:30:56;;;;;;;5.30;2.90;;;22.30;99.90;;;;;;4995578;28;20179;-64
2023/08/05 10:33:22;;;;;;;4.90;3.10;;;22.40;99.90;;;;;;4998364;28;20222;-66
2023/08/05 10:35:49;;;;;;;2.75;2.55;;;22.50;99.90;;;;;;4995918;28;20196;-66
2023/08/05 10:38:23;;;;;;;2.65;2.45;;;22.60;99.90;;;;;;4994778;28;20275;-65
2023/08/05 10:41:03;;;;;;;2.90;2.60;;;22.80;99.90;;;;;;5000864;28;20185;-65
2023/08/05 10:43:42;;;;;;;3.30;2.50;;;23.00;99.90;;;;;;4998934;28;20180;-65
2023/08/05 10:46:07;;;;;;;3.22;2.35;;;23.20;99.90;;;;;;4996125;28;20187;-66
2023/08/05 10:48:42;;;;;;;2.50;2.30;;;23.30;99.90;;;;;;4992846;28;20277;-65
2023/08/05 10:51:18;;;;;;;2.50;2.30;;;23.30;99.90;;;;;;4993337;28;20255;-66
2023/08/05 10:53:51;;;;;;;2.53;2.33;;;23.30;99.90;;;;;;4987698;28;20237;-65
2023/08/05 10:56:28;;;;;;;2.65;2.40;;;23.20;99.90;;;;;;4991853;28;20178;-66
2023/08/05 10:58:54;;;;;;;2.63;1.92;;;23.20;99.90;;;;;;5002096;28;20171;-66
2023/08/05 11:01:20;;;;;;;2.35;2.15;;;23.30;99.90;;;;;;4989203;28;20200;-66
2023/08/05 11:03:47;;;;;;;2.33;2.13;;;23.40;99.90;;;;;;5009500;28;20204;-67
2023/08/05 11:06:22;;;;;;;2.13;1.90;;;23.40;99.90;;;;;;4990937;28;20266;-65
2023/08/05 11:08:51;;;;;;;2.17;1.98;;;23.50;99.90;;;;;;4975558;28;20207;-65
2023/08/05 11:11:19;;;;;;;2.15;1.95;;;23.50;99.90;;;;;;4984860;28;20262;-66
2023/08/05 11:13:47;;;;;;;2.10;1.95;;;23.40;99.90;;;;;;4996170;28;20253;-66
2023/08/05 11:16:19;;;;;;;2.78;1.98;;;23.30;99.90;;;;;;4993039;28;20210;-66
2023/08/05 11:18:48;;;;;;;3.10;2.08;;;23.30;99.90;;;;;;4982739;28;20215;-65
2023/08/05 11:21:15;;;;;;;2.10;1.70;;;23.20;99.90;;;;;;4982220;28;20227;-65
2023/08/05 11:23:42;;;;;;;2.20;1.92;;;23.10;99.90;;;;;;4994430;28;20191;-66
2023/08/05 11:26:11;;;;;;;2.63;1.70;;;23.10;99.90;;;;;;4994328;28;20180;-66
2023/08/05 11:28:47;;;;;;;2.50;1.80;;;23.00;99.90;;;;;;4993305;28;20233;-65
2023/08/05 11:31:23;;;;;;;1.52;1.42;;;23.00;99.90;;;;;;4977483;28;20176;-66
2023/08/05 11:33:50;;;;;;;1.30;1.20;;;22.90;99.90;;;;;;4990877;28;20222;-66
2023/08/05 11:36:25;;;;;;;1.35;1.25;;;22.90;99.90;;;;;;4983936;28;20183;-66
2023/08/05 11:38:56;;;;;;;1.50;1.40;;;22.90;99.90;;;;;;4994157;28;20187;-66
2023/08/05 11:41:23;;;;;;;1.23;1.13;;;22.90;99.90;;;;;;4995406;28;20338;-66
2023/08/05 11:43:49;;;;;;;1.40;1.30;;;22.90;99.90;;;;;;4995147;28;20194;-66
2023/08/05 11:46:30;;;;;;;2.53;1.63;;;23.00;99.90;;;;;;4995409;28;20187;-66
2023/08/05 11:49:13;;;;;;;2.30;1.30;;;23.00;99.90;;;;;;4977406;28;20222;-65
2023/08/05 11:51:50;;;;;;;1.30;1.05;;;23.10;99.90;;;;;;4979844;28;20175;-67
2023/08/05 11:54:32;;;;;;;1.40;1.30;;;23.10;99.90;;;;;;4995357;28;20219;-66
2023/08/05 11:57:01;;;;;;;1.92;1.42;;;23.10;99.90;;;;;;4995528;28;20174;-66
2023/08/05 11:59:45;;;;;;;1.50;1.40;;;23.10;99.90;;;;;;4995596;28;20171;-66
2023/08/05 12:02:13;;;;;;;1.45;1.27;;;23.00;99.90;;;;;;4994378;28;20179;-66
2023/08/05 12:04:47;;;;;;;1.48;1.38;;;23.00;99.90;;;;;;4988619;28;20249;-66
2023/08/05 12:07:18;;;;;;;1.40;1.30;;;23.00;99.90;;;;;;4993794;28;20466;-65
2023/08/05 12:09:44;;;;;;;1.60;1.50;;;23.10;99.90;;;;;;4983890;28;20184;-66
2023/08/05 12:12:17;;;;;;;1.60;1.50;;;23.30;99.90;;;;;;4991896;28;20187;-65
2023/08/05 12:14:43;;;;;;;1.42;1.33;;;23.50;99.90;;;;;;4991888;28;20318;-71
2023/08/05 12:17:10;;;;;;;2.45;1.63;;;23.70;99.90;;;;;;4988577;28;20176;-71
2023/08/05 12:19:38;;;;;;;1.70;1.60;;;24.00;99.90;;;;;;4991830;28;20180;-69
2023/08/05 12:22:04;;;;;;;1.98;1.60;;;24.10;99.90;;;;;;4988452;28;20172;-72
2023/08/05 12:24:30;;;;;;;2.38;1.50;;;24.30;99.90;;;;;;4987599;28;20249;-70
2023/08/05 12:26:55;;;;;;;1.60;1.50;;;24.50;99.90;;;;;;4990949;28;20196;-71
2023/08/05 12:29:23;;;;;;;2.08;1.80;;;24.70;99.90;;;;;;4993379;28;20191;-72
2023/08/05 12:31:49;;;;;;;1.80;1.60;;;24.80;99.90;;;;;;4995863;28;20175;-71
2023/08/05 12:34:18;;;;;;;2.00;1.80;;;25.00;99.90;;;;;;4995747;28;20223;-72
2023/08/05 12:36:45;;;;;;;1.77;1.67;;;25.30;99.90;;;;;;4992751;28;20191;-71
2023/08/05 12:39:13;;;;;;;1.90;1.70;;;25.60;99.90;;;;;;4993738;28;20183;-73
2023/08/05 12:41:43;;;;;;;1.73;1.63;;;25.70;99.90;;;;;;4991945;28;20195;-72
2023/08/05 12:44:08;;;;;;;1.70;1.60;;;25.80;99.90;;;;;;4991713;28;20188;-74
2023/08/05 12:46:34;;;;;;;2.22;1.67;;;25.90;99.90;;;;;;4991600;28;20231;-73
2023/08/05 12:49:04;;;;;;;2.53;1.73;;;26.00;99.90;;;;;;5038669;23;20295;-71
2023/08/05 12:51:30;;;;;;;2.88;2.03;;;25.90;99.90;;;;;;4999215;28;20179;-71